WEATHER DATA

YESTERDAY
Time Temp. Dewp. Hum. Wind dir Wind speed Wind gust Bar. 1h Prec. 24h Prec.
00:15 11.7 5.1 64 261 1.1 1.4 1010.6 0.5050 0.1000
00:25 11.6 5 64 259 0.8 1.4 1010.7 0.4040 0.1000
00:35 11.5 4.9 64 259 0.8 1.4 1011 0.3030 0.2000
00:45 11.3 4.7 64 259 0.8 1.4 1011.1 0.3030 0.2000
00:56 11.1 4.6 64 256 1.1 1.4 1011.1 0.2020 0.2000
01:05 10.8 4.3 64 270 1.7 2.2 1011.3 0.2020 0.3000
01:15 10.5 4 64 270 0.8 1.1 1011.3 0.2020 0.3000
01:25 10.4 4.1 65 270 0.6 1.1 1011.4 0.2020 0.3000
01:36 10.3 4 65 270 0.6 1.1 1011.5 0.1010 0.3000
01:46 10.2 3.9 65 270 0.6 0.8 1011.4 0.1010 0.3000
01:55 10 3.7 65 270 0.8 1.1 1011.5 0.2020 0.4000
02:06 9.7 3.2 64 270 0.6 1.4 1011.6 0.1010 0.4000
02:16 9.2 3 65 270 0.8 1.4 1011.7 0.2020 0.5000
02:36 8.9 2.7 65 270 0.8 1.4 1012.1 0.3030 0.6000
02:46 8.7 2.5 65 270 0.8 1.1 1012.5 0.3030 0.7000
02:56 8.7 2.5 65 270 0.8 1.4 1012.6 0.3030 0.7000
03:06 8.7 2.5 65 270 0.8 1.4 1012.9 0.2020 0.7000
03:17 8.6 2.4 65 270 0.8 1.1 1013 0.1010 0.7000
03:27 8.5 2.3 65 270 0.8 1.4 1013 0.2020 0.8000
03:36 8.3 1.9 64 270 0.8 1.4 1013.2 0.1010 0.8000
03:46 8.2 2 65 270 0.8 1.1 1013.2 0.1010 0.8000
03:57 8.1 2.1 66 270 0.8 1.4 1013.5 0.2020 0.9000
04:07 8 2 66 270 0.8 1.1 1013.9 0.2020 0.9000
04:16 8 2 66 270 0.8 1.1 1013.9 0.1010 0.9000
04:27 7.9 1.7 65 270 0.8 1.4 1014 0.2020 1.0000
04:37 8.1 1.9 65 280 0.8 1.1 1014.1 0.2020 1.0000
04:48 8.1 1.9 65 284 0.8 1.4 1014.2 0.1010 1.0000
04:57 8 1.8 65 285 0.8 1.4 1014.4 0.1010 1.0000
05:08 8 1.8 65 282 0.8 1.4 1014.4 0.1010 1.0000
05:18 8 1.8 65 285 1.1 1.4 1014.8 0.1010 1.0000
05:28 8 1.8 65 285 1.1 1.4 1014.8 0.0000 1.0000
05:38 7.9 1.7 65 285 0.8 1.4 1014.6 0.0000 1.0000
05:49 7.8 1.6 65 270 0.6 1.1 1015 0.0000 1.0000
05:59 7.8 1.6 65 270 0.6 1.1 1015.1 0.0000 1.0000
06:09 7.6 1.4 65 270 0.8 1.1 1015.5 0.0000 1.0000
06:19 7.5 1.6 66 270 0.6 1.1 1015.4 0.1010 1.1000
06:30 7.5 1.6 66 270 0.6 1.1 1015.6 0.1010 1.1000
06:40 7.3 1.4 66 270 0.6 1.1 1015.8 0.1010 1.1000
06:49 7.7 1.8 66 270 0.6 0.8 1016 0.1010 1.1000
06:59 7.6 1.4 65 270 0.6 1.1 1016.2 0.1010 1.1000
07:10 7.6 2.1 68 270 0.6 1.1 1016.3 0.2020 1.2000
07:20 9.2 2.5 63 255 0.6 1.1 1016.5 0.1010 1.2000
07:29 9.2 4.4 72 247 0.8 1.4 1016.9 0.1010 1.2000
07:40 10.3 2.6 59 255 0.8 1.1 1016.9 0.2020 1.3000
07:50 9.5 2.1 60 250 0.8 1.4 1017.1 0.2020 1.3000
08:00 9.2 2.1 61 251 0.8 1.1 1017.4 0.2020 1.3000
08:10 8.7 1.8 62 252 0.8 1.4 1017.5 0.2020 1.4000
08:20 8.5 1.9 63 252 0.8 1.4 1017.7 0.2020 1.4000
08:30 8.4 1.8 63 251 0.8 1.1 1017.9 0.2020 1.4000
08:40 8.2 1.8 64 254 0.8 1.1 1018 0.1010 1.4000
08:51 8.3 1.9 64 251 0.6 0.8 1018.2 0.1010 1.4000
09:01 8.3 1.9 64 233 0.6 0.8 1018.2 0.1010 1.4000
09:10 8.3 1.9 64 234 0.6 0.8 1018.6 0.0000 1.4000
09:21 8.3 1.9 64 234 0.6 0.8 1018.7 0.0000 1.4000
09:32 8.3 1.9 64 257 0.8 1.1 1018.8 0.0000 1.4000
09:41 8.2 1.8 64 258 0.8 1.1 1018.9 0.0000 1.4000
09:51 8.3 1.9 64 256 0.8 1.1 1019 0.0000 1.4000
10:02 8.2 2 65 257 0.8 1.1 1019.2 0.0000 1.4000
10:12 8.2 2 65 250 0.6 0.8 1019.3 0.0000 1.4000
10:22 8.3 2.1 65 232 0.3 0.8 1019.3 0.0000 1.4000
10:31 8.4 2 64 188 0.3 0.6 1019.4 0.0000 1.4000
10:42 8.5 2.1 64 168 0.3 0.6 1019.5 0.0000 1.4000
10:52 8.7 2.1 63 215 0.3 0.8 1019.5 0.0000 1.4000
11:02 8.7 2.1 63 0 0.3 1019.7 0.0000 1.4000
11:12 8.9 2.2 63 135 0.3 0.6 1019.8 0.0000 1.4000
11:22 9 2.1 62 0 0.3 1019.9 0.0000 1.4000
11:32 9 1.9 61 250 0.6 1.4 1020 0.0000 1.4000
11:42 9 1.9 61 257 0.8 1.4 1020 0.0000 1.4000
11:52 9.1 1.8 60 229 0.3 0.6 1020.1 0.0000 1.4000
12:02 9.2 1.6 59 229 0.3 0.6 1020.2 0.0000 1.4000
12:13 9.3 1.7 59 153 0.3 0.3 1020.5 0.0000 1.4000
12:23 9.4 1.6 58 149 0.3 0.6 1020.5 0.0000 1.4000
12:33 9.5 1.4 57 144 0.3 0.3 1020.5 0.0000 1.4000
12:43 9.6 1.5 57 161 0.3 0.6 1020.5 0.0000 1.4000
12:53 9.7 0.6 53 146 0.3 0.6 1020.5 0.0000 1.4000
13:04 9.4 0.3 53 135 0.3 0.6 1020.5 0.0000 1.4000
13:15 9.6 0.5 53 252 0.8 1.4 1020.6 0.0000 1.4000
13:25 9.6 0.8 54 262 1.1 1.4 1020.6 0.0000 1.4000
13:35 9.5 0.7 54 257 1.1 1.7 1020.6 0.0000 1.4000
13:45 9.8 0.7 53 225 0.3 0.6 1020.6 0.0000 1.4000
13:55 9.9 0.2 51 188 0.3 0.6 1020.7 0.0000 1.4000
14:05 10.3 0.6 51 194 0.3 0.6 1020.7 0.0000 1.4000
14:15 10.3 0.1 49 0 0.3 1020.7 0.0000 1.4000
14:26 10.3 0.1 49 234 0.3 0.8 1020.8 0.0000 1.4000
14:36 10.3 0.3 50 256 1.1 1.7 1020.8 0.0000 1.4000
14:45 10.2 0 49 259 1.1 1.7 1020.9 0.0000 1.4000
14:55 10.1 -0.1 49 225 0.3 0.8 1020.8 0.0000 1.4000
15:16 10.3 -0.4 47 233 0.3 0.8 1020.8 0.0000 1.4000
15:26 10.5 -1.1 44 135 0.3 0.6 1020.9 0.0000 1.4000
15:36 10 -1.5 44 256 0.8 1.7 1020.9 0.0000 1.4000
15:46 9.6 -1 47 270 0.8 1.4 1020.8 0.0000 1.4000
15:56 9.9 -0.5 48 270 0.8 1.7 1020.8 0.0000 1.4000
16:06 10.3 -0.7 46 225 0.8 1.9 1020.9 0.0000 1.4000
16:17 10 -0.2 49 168 0.3 0.6 1020.9 0.0000 1.4000
16:26 11.5 0.6 47 194 0.3 0.6 1020.9 0.0000 1.4000
16:46 11.7 0.5 46 221 0.6 2.2 1021 0.0000 1.4000
17:01 12 0.4 45 156 0.3 0.6 1021.1 0.0000 1.4000
17:11 12.1 0.5 45 270 0.3 0.8 1021.1 0.0000 1.4000
17:22 12.1 0.5 45 247 0.8 1.4 1021.1 0.0000 1.4000
17:32 12.3 0.1 43 252 0.8 1.9 1021.2 0.0000 1.4000
17:41 11.7 -0.1 44 299 1.4 1.9 1021.2 0.0000 1.4000
17:52 11.6 0.1 45 295 1.4 1.9 1021.2 0.0000 1.4000
18:02 12.5 2.9 52 270 1.7 2.2 1021.3 0.0000 1.4000
18:12 12.3 2.5 51 275 1.7 2.2 1021.5 0.0000 1.4000
18:22 13.6 1.6 44 270 1.1 1.7 1021.4 0.0000 1.4000
18:32 12.8 0.9 44 260 1.1 1.7 1021.5 0.0000 1.4000
18:38 12.5 0.9 45 260 1.1 1.7 1021.6 0.0000 1.4000
18:48 11.7 0.8 47 270 0.8 1.4 1021.6 0.0000 1.4000
18:57 11.7 0.8 47 270 0.8 1.7 1021.6 0.0000 1.4000
19:08 10.7 0.1 48 270 0.8 1.1 1021.6 0.0000 1.4000
19:18 10.3 0.3 50 299 0.8 1.4 1021.6 0.0000 1.4000
19:28 11.4 2.4 54 270 0.8 1.1 1021.7 0.0000 1.4000
19:38 10.9 0.9 50 288 0.8 1.7 1021.7 0.0000 1.4000
19:49 10.1 0.4 51 293 0.8 1.1 1021.8 0.0000 1.4000
19:59 9.9 1.5 56 286 0.8 1.9 1022 0.0000 1.4000
20:08 9.9 0.5 52 259 0.8 1.1 1021.9 0.0000 1.4000
20:18 9.2 0.1 53 270 1.1 1.9 1022 0.0000 1.4000
20:29 9.2 0.4 54 292 1.1 1.7 1022.1 0.0000 1.4000
20:39 9.1 0.3 54 291 1.1 1.4 1022.1 0.0000 1.4000
20:49 9 0.2 54 290 1.1 1.4 1022.4 0.0000 1.4000
20:59 9 1.2 58 270 0.6 1.1 1022.6 0.0000 1.4000
21:09 10.6 0.9 51 270 0.6 1.1 1022.6 0.0000 1.4000
21:19 10.2 0.5 51 259 0.8 1.1 1022.6 0.0000 1.4000
21:29 10 0.6 52 255 0.8 1.4 1022.6 0.0000 1.4000
21:40 9.7 0.6 53 258 0.8 1.4 1022.6 0.0000 1.4000
21:50 9.4 0.3 53 259 0.8 1.4 1022.6 0.0000 1.4000
22:00 9.2 0.1 53 259 0.8 1.4 1022.7 0.0000 1.4000
22:10 9.6 2.5 61 256 0.8 1.4 1022.8 0.0000 1.4000
22:20 10.5 0.8 51 270 0.6 1.1 1022.6 0.0000 1.4000
22:30 10.1 0.7 52 255 0.8 1.4 1022.7 0.0000 1.4000
22:40 9.5 0.4 53 285 1.1 1.4 1022.6 0.0000 1.4000
22:51 8.9 0.1 54 270 0.6 1.1 1022.6 0.0000 1.4000
23:01 10.1 1.5 55 270 0.6 1.1 1022.8 0.0000 1.4000
23:11 8.8 -0.2 53 258 0.8 1.1 1022.7 0.0000 1.4000
23:21 8.5 0 55 257 0.8 1.4 1022.7 0.0000 1.4000
23:31 8.6 -0.2 54 257 0.8 1.1 1022.7 0.0000 1.4000
23:41 8.6 -0.2 54 255 0.8 1.1 1022.7 0.0000 1.4000
23:51 8.7 -0.1 54 254 0.8 1.1 1022.7 0.0000 1.4000

DAY STATISTIC

2021-04-12
TEMPERATURE
AVERAGE
9.5
HIGH
13.6
18:22
LOW
7.3
06:40
PRESSURE
AVERAGE
1018.5
HIGH
1022.8
22:10
LOW
1010.6
00:15
DEWPOINT
AVERAGE
1.5
HIGH
5.1
00:15
LOW
-1.5
15:36
HUMIDITY
AVERAGE
58
HIGH
72
07:29
LOW
43
17:32
WIND SPEED
AVERAGE
0.7
HIGH
1.7
01:05
WIND GUST
AVERAGE
1.2
HIGH
2.2
01:05
WIND DIRECTION
PREVAILING
W
73.2%
N
0.0
NE
0.0
E
0.0
SE
5.8
S
5.1
SW
10.9
W
73.2
NW
2.9
PRECIPITATION
RAIN HOUR
0.5
RAIN DAY
1.4
TEMPERATURE (°C)
LOW
7.3
HIGH
13.6
AVERAGE
9.5
PRESSURE (hpa)
LOW
1010.6
HIGH
1022.8
AVERAGE
1018.5
DEVICE